createdAt,value
2022-10-22T00:02:27.655Z,101145.22
2022-10-22T00:04:56.806Z,101151.34
2022-10-22T00:07:23.393Z,101142.91
2022-10-22T00:09:49.967Z,101138.53
2022-10-22T00:12:17.092Z,101148.19
2022-10-22T00:14:43.911Z,101124.53
2022-10-22T00:17:11.525Z,101154.75
2022-10-22T00:19:39.229Z,101143.69
2022-10-22T00:22:06.429Z,101158.47
2022-10-22T00:24:33.581Z,101152.78
2022-10-22T00:27:00.028Z,101159.56
2022-10-22T00:29:26.408Z,101162.25
2022-10-22T00:31:52.956Z,101173.22
2022-10-22T00:34:21.319Z,101174.34
2022-10-22T00:36:51.871Z,101170.53
2022-10-22T00:39:20.096Z,101179.50
2022-10-22T00:41:48.295Z,101188.97
2022-10-22T00:44:52.228Z,101185.97
2022-10-22T00:47:19.824Z,101169.53
2022-10-22T00:49:47.000Z,101189.69
2022-10-22T00:52:14.335Z,101192.53
2022-10-22T00:54:42.491Z,101186.31
2022-10-22T00:57:09.577Z,101189.38
2022-10-22T00:59:37.431Z,101188.72
2022-10-22T01:02:04.488Z,101194.06
2022-10-22T01:04:30.876Z,101178.56
2022-10-22T01:06:57.337Z,101185.69
2022-10-22T01:09:38.817Z,101191.69
2022-10-22T01:12:16.843Z,101192.22
2022-10-22T01:15:14.261Z,101195.38
2022-10-22T01:18:03.064Z,101191.63
2022-10-22T01:20:58.222Z,101179.75
2022-10-22T01:23:46.468Z,101186.94
2022-10-22T01:26:21.787Z,101185.38
2022-10-22T01:29:00.422Z,101189.56
2022-10-22T01:31:32.424Z,101185.50
2022-10-22T01:34:00.375Z,101170.91
2022-10-22T01:36:30.530Z,101180.72
2022-10-22T01:38:58.774Z,101154.34
2022-10-22T01:41:28.272Z,101186.44
2022-10-22T01:43:55.344Z,101183.09
2022-10-22T01:46:26.821Z,101184.28
2022-10-22T01:49:27.508Z,101193.69
2022-10-22T01:52:12.028Z,101184.13
2022-10-22T01:54:44.294Z,101184.88
2022-10-22T01:57:31.437Z,101172.50
2022-10-22T02:00:10.827Z,101183.34
2022-10-22T02:05:27.291Z,101185.84
2022-10-22T02:08:05.067Z,101183.88
2022-10-22T02:10:32.425Z,101189.22
2022-10-22T02:13:01.251Z,101176.41
2022-10-22T02:15:31.120Z,101181.69
2022-10-22T02:18:00.648Z,101190.59
2022-10-22T02:20:33.020Z,101188.56
2022-10-22T02:23:00.590Z,101187.78
2022-10-22T02:25:35.129Z,101182.97
2022-10-22T02:28:16.741Z,101180.03
2022-10-22T02:30:46.743Z,101182.75
2022-10-22T02:33:20.936Z,101182.09
2022-10-22T02:35:48.666Z,101183.63
2022-10-22T02:38:16.199Z,101158.69
2022-10-22T02:40:42.712Z,101186.09
2022-10-22T02:43:09.126Z,101191.44
2022-10-22T02:45:35.893Z,101191.06
2022-10-22T02:48:02.353Z,101187.66
2022-10-22T02:50:28.818Z,101176.13
2022-10-22T02:52:55.165Z,101188.53
2022-10-22T02:55:21.642Z,101181.72
2022-10-22T02:57:48.019Z,101191.22
2022-10-22T03:00:14.895Z,101177.47
2022-10-22T03:02:41.303Z,101203.00
2022-10-22T03:05:08.246Z,101194.59
2022-10-22T03:07:34.611Z,101170.44
2022-10-22T03:10:01.009Z,101195.81
2022-10-22T03:12:27.380Z,101199.00
2022-10-22T03:14:53.717Z,101182.53
2022-10-22T03:17:20.093Z,101203.22
2022-10-22T03:19:46.464Z,101212.97
2022-10-22T03:22:23.270Z,101204.91
2022-10-22T03:24:54.633Z,101207.25
2022-10-22T03:27:22.389Z,101196.69
2022-10-22T03:29:51.721Z,101208.25
2022-10-22T03:32:19.025Z,101212.28
2022-10-22T03:34:45.412Z,101200.19
2022-10-22T03:37:12.374Z,101175.00
2022-10-22T03:39:38.847Z,101189.94
2022-10-22T03:42:06.833Z,101216.00
2022-10-22T03:44:33.639Z,101203.56
2022-10-22T03:47:02.516Z,101221.53
2022-10-22T03:49:29.370Z,101234.16
2022-10-22T03:51:55.787Z,101234.50
2022-10-22T03:54:22.152Z,101222.72
2022-10-22T03:56:48.504Z,101231.63
2022-10-22T03:59:15.058Z,101229.44
2022-10-22T04:01:41.711Z,101226.06
2022-10-22T04:04:08.579Z,101223.41
2022-10-22T04:06:34.933Z,101225.25
2022-10-22T04:09:02.278Z,101229.44
2022-10-22T04:11:28.699Z,101227.44
2022-10-22T04:13:55.053Z,101244.75
2022-10-22T04:16:25.066Z,101245.41
2022-10-22T04:18:53.885Z,101250.09
2022-10-22T04:21:20.317Z,101227.41
2022-10-22T04:23:48.337Z,101248.94
2022-10-22T04:26:15.491Z,101258.03
2022-10-22T04:28:42.535Z,101257.84
2022-10-22T04:31:10.955Z,101253.97
2022-10-22T04:33:37.587Z,101248.63
2022-10-22T04:36:12.879Z,101240.56
2022-10-22T04:38:39.904Z,101247.09
2022-10-22T04:41:19.163Z,101236.34
2022-10-22T04:43:46.601Z,101250.28
2022-10-22T04:46:14.147Z,101230.47
2022-10-22T04:48:42.118Z,101251.47
2022-10-22T04:51:10.948Z,101230.47
2022-10-22T04:53:37.994Z,101262.06
2022-10-22T04:56:16.277Z,101254.81
2022-10-22T04:58:43.881Z,101226.75
2022-10-22T05:01:21.293Z,101249.78
2022-10-22T05:03:49.410Z,101251.31
2022-10-22T05:06:16.675Z,101251.97
2022-10-22T05:08:43.610Z,101253.97
2022-10-22T05:11:11.876Z,101257.34
2022-10-22T05:13:38.677Z,101252.97
2022-10-22T05:16:05.344Z,101253.97
2022-10-22T05:18:34.540Z,101256.66
2022-10-22T05:21:00.999Z,101257.84
2022-10-22T05:23:28.123Z,101247.75
2022-10-22T05:25:54.515Z,101248.78
2022-10-22T05:28:21.335Z,101249.59
2022-10-22T05:30:58.151Z,101259.84
2022-10-22T05:33:24.896Z,101264.72
2022-10-22T05:35:51.943Z,101268.72
2022-10-22T05:38:19.375Z,101271.25
2022-10-22T05:40:45.802Z,101266.22
2022-10-22T05:43:12.812Z,101267.03
2022-10-22T05:45:40.931Z,101269.75
2022-10-22T05:48:08.115Z,101277.31
2022-10-22T05:50:38.208Z,101267.59
2022-10-22T05:53:05.672Z,101271.44
2022-10-22T05:55:37.018Z,101282.41
2022-10-22T05:58:05.033Z,101280.72
2022-10-22T06:00:31.407Z,101259.34
2022-10-22T06:02:57.748Z,101276.81
2022-10-22T06:05:24.101Z,101274.16
2022-10-22T06:07:50.501Z,101260.00
2022-10-22T06:10:19.662Z,101278.03
2022-10-22T06:12:47.107Z,101278.88
2022-10-22T06:15:15.680Z,101258.34
2022-10-22T06:17:43.960Z,101272.47
2022-10-22T06:20:11.249Z,101280.38
2022-10-22T06:22:37.688Z,101266.94
2022-10-22T06:25:05.146Z,101273.81
2022-10-22T06:27:31.993Z,101283.22
2022-10-22T06:29:58.345Z,101285.91
2022-10-22T06:32:24.681Z,101288.94
2022-10-22T06:34:51.088Z,101288.25
2022-10-22T06:37:17.507Z,101289.94
2022-10-22T06:39:44.060Z,101277.50
2022-10-22T06:42:10.389Z,101283.56
2022-10-22T06:44:36.767Z,101288.59
2022-10-22T06:47:03.178Z,101286.25
2022-10-22T06:49:29.594Z,101288.78
2022-10-22T06:51:55.944Z,101294.81
2022-10-22T06:54:23.107Z,101263.72
2022-10-22T06:56:49.779Z,101289.94
2022-10-22T06:59:16.130Z,101293.59
2022-10-22T07:01:42.971Z,101290.91
2022-10-22T07:04:10.786Z,101294.28
2022-10-22T07:06:37.257Z,101290.56
2022-10-22T07:09:03.902Z,101302.66
2022-10-22T07:11:39.265Z,101298.94
2022-10-22T07:14:05.761Z,101306.13
2022-10-22T07:16:32.652Z,101305.44
2022-10-22T07:19:00.481Z,101298.53
2022-10-22T07:21:26.863Z,101310.41
2022-10-22T07:23:53.330Z,101311.78
2022-10-22T07:26:20.407Z,101311.22
2022-10-22T07:28:47.610Z,101309.78
2022-10-22T07:31:15.305Z,101301.63
2022-10-22T07:33:41.690Z,101326.00
2022-10-22T07:36:12.074Z,101313.84
2022-10-22T07:38:38.427Z,101327.44
2022-10-22T07:41:04.951Z,101318.13
2022-10-22T07:43:31.323Z,101324.78
2022-10-22T07:45:57.739Z,101313.81
2022-10-22T07:48:24.501Z,101322.81
2022-10-22T07:50:51.664Z,101318.31
2022-10-22T07:53:18.564Z,101323.09
2022-10-22T07:55:48.819Z,101307.84
2022-10-22T07:58:15.208Z,101319.78
2022-10-22T08:00:41.658Z,101324.63
2022-10-22T08:03:11.070Z,101302.78
2022-10-22T08:05:39.236Z,101340.75
2022-10-22T08:08:07.165Z,101335.63
2022-10-22T08:10:34.794Z,101337.31
2022-10-22T08:13:01.147Z,101334.63
2022-10-22T08:15:27.543Z,101341.78
2022-10-22T08:17:53.971Z,101349.72
2022-10-22T08:20:20.409Z,101346.00
2022-10-22T08:22:46.916Z,101351.00
2022-10-22T08:25:13.652Z,101343.22
2022-10-22T08:27:40.243Z,101335.13
2022-10-22T08:30:07.732Z,101347.16
2022-10-22T08:32:34.089Z,101348.81
2022-10-22T08:35:00.428Z,101347.41
2022-10-22T08:37:26.816Z,101350.56
2022-10-22T08:39:53.504Z,101363.19
2022-10-22T08:42:44.391Z,101358.81
2022-10-22T08:45:40.447Z,101343.19
2022-10-22T08:48:18.998Z,101355.25
2022-10-22T08:50:52.208Z,101348.88
2022-10-22T08:53:23.425Z,101326.47
2022-10-22T08:55:53.914Z,101337.81
2022-10-22T08:58:53.588Z,101330.34
2022-10-22T09:01:26.558Z,101319.81
2022-10-22T09:03:58.460Z,101319.00
2022-10-22T09:06:29.809Z,101304.06
2022-10-22T09:08:58.413Z,101310.94
2022-10-22T09:11:36.875Z,101310.31
2022-10-22T09:14:04.245Z,101313.94
2022-10-22T09:16:42.949Z,101319.34
2022-10-22T09:19:27.196Z,101319.28
2022-10-22T09:22:00.239Z,101326.16
2022-10-22T09:24:44.030Z,101328.34
2022-10-22T09:27:23.682Z,101322.69
2022-10-22T09:29:50.148Z,101326.22
2022-10-22T09:32:17.857Z,101324.75
2022-10-22T09:34:46.141Z,101328.28
2022-10-22T09:37:12.507Z,101334.34
2022-10-22T09:39:43.553Z,101333.50
2022-10-22T09:42:11.605Z,101326.28
2022-10-22T09:44:38.810Z,101340.88
2022-10-22T09:47:42.606Z,101341.44
2022-10-22T09:50:09.405Z,101341.28
2022-10-22T09:52:35.790Z,101346.75
2022-10-22T09:55:12.591Z,101340.88
2022-10-22T09:57:40.960Z,101342.59
2022-10-22T10:00:18.195Z,101349.44
2022-10-22T10:02:44.587Z,101350.56
2022-10-22T10:05:19.929Z,101363.34
2022-10-22T10:07:48.992Z,101365.03
2022-10-22T10:10:51.038Z,101369.50
2022-10-22T10:13:32.501Z,101383.59
2022-10-22T10:16:12.402Z,101392.16
2022-10-22T10:19:05.619Z,101394.97
2022-10-22T10:22:03.071Z,101410.25
2022-10-22T10:24:57.388Z,101416.97
2022-10-22T10:28:04.529Z,101416.47
2022-10-22T10:30:32.286Z,101420.34
2022-10-22T10:33:15.317Z,101418.03
2022-10-22T10:35:55.051Z,101418.88
2022-10-22T10:38:50.398Z,101421.63
2022-10-22T10:41:31.772Z,101422.44
2022-10-22T10:44:20.239Z,101428.09
2022-10-22T10:47:12.937Z,101429.03
2022-10-22T10:49:39.392Z,101443.78
2022-10-22T10:52:21.488Z,101437.13
2022-10-22T10:55:06.591Z,101435.25
2022-10-22T10:57:44.296Z,101432.50
2022-10-22T11:00:15.765Z,101441.28
2022-10-22T11:03:16.112Z,101436.34
2022-10-22T11:06:19.390Z,101442.97
2022-10-22T11:08:59.199Z,101437.38
2022-10-22T11:11:43.914Z,101437.34
2022-10-22T11:14:32.373Z,101428.56
2022-10-22T11:17:04.443Z,101429.50
2022-10-22T11:19:50.948Z,101462.34
2022-10-22T11:23:18.968Z,101455.22
2022-10-22T11:25:48.839Z,101456.03
2022-10-22T11:28:44.455Z,101454.06
2022-10-22T11:31:16.072Z,101446.66
2022-10-22T11:34:28.355Z,101467.56
2022-10-22T11:36:52.847Z,101462.03
2022-10-22T11:39:40.312Z,101462.41
2022-10-22T11:42:10.767Z,101460.47
2022-10-22T11:45:00.854Z,101468.25
2022-10-22T11:47:31.876Z,101461.25
2022-10-22T11:50:24.982Z,101472.25
2022-10-22T11:53:21.526Z,101474.81
2022-10-22T11:56:03.691Z,101473.41
2022-10-22T11:58:30.534Z,101470.06
2022-10-22T12:01:07.133Z,101473.59
2022-10-22T12:03:33.432Z,101481.94
2022-10-22T12:06:20.892Z,101468.88
2022-10-22T12:08:50.864Z,101470.28
2022-10-22T12:11:25.352Z,101468.13
2022-10-22T12:14:16.191Z,101478.94
2022-10-22T12:16:56.226Z,101480.59
2022-10-22T12:19:23.162Z,101479.38
2022-10-22T12:22:08.883Z,101484.28
2022-10-22T12:24:40.469Z,101485.59
2022-10-22T12:27:38.141Z,101468.34
2022-10-22T12:30:22.700Z,101469.78
2022-10-22T12:32:53.316Z,101473.25
2022-10-22T12:35:22.917Z,101468.66
2022-10-22T12:37:54.704Z,101428.91
2022-10-22T12:40:25.989Z,101477.44
2022-10-22T12:43:00.933Z,101468.81
2022-10-22T12:45:32.671Z,101482.22
2022-10-22T12:48:02.207Z,101478.38
2022-10-22T12:50:38.149Z,101468.34
2022-10-22T12:53:15.285Z,101472.63
2022-10-22T12:55:42.024Z,101478.84
2022-10-22T12:58:08.489Z,101491.09
2022-10-22T13:00:36.393Z,101484.28
2022-10-22T13:03:06.063Z,101489.75
2022-10-22T13:05:38.962Z,101485.84
2022-10-22T13:08:16.906Z,101492.88
2022-10-22T13:10:51.040Z,101499.34
2022-10-22T13:13:31.759Z,101494.03
2022-10-22T13:16:27.728Z,101502.78
2022-10-22T13:18:54.773Z,101501.53
2022-10-22T13:21:38.364Z,101507.19
2022-10-22T13:24:21.826Z,101501.75
2022-10-22T13:26:51.004Z,101503.44
2022-10-22T13:29:20.038Z,101484.50
2022-10-22T13:31:51.717Z,101505.53
2022-10-22T13:34:21.065Z,101487.03
2022-10-22T13:36:48.636Z,101512.81
2022-10-22T13:39:23.035Z,101514.53
2022-10-22T13:41:50.697Z,101510.63
2022-10-22T13:44:18.517Z,101512.81
2022-10-22T13:46:46.277Z,101516.38
2022-10-22T13:49:16.713Z,101516.97
2022-10-22T13:51:43.730Z,101519.59
2022-10-22T13:54:21.504Z,101526.84
2022-10-22T13:56:48.303Z,101523.16
2022-10-22T13:59:16.263Z,101520.38
2022-10-22T14:01:45.288Z,101520.13
2022-10-22T14:04:13.840Z,101470.72
2022-10-22T14:06:40.205Z,101516.38
2022-10-22T14:09:13.375Z,101514.34
2022-10-22T14:11:39.757Z,101515.34
2022-10-22T14:14:08.866Z,101515.19
2022-10-22T14:16:36.839Z,101520.38
2022-10-22T14:19:04.669Z,101510.19
2022-10-22T14:21:38.007Z,101490.19
2022-10-22T14:24:07.097Z,101490.72
2022-10-22T14:26:35.857Z,101516.88
2022-10-22T14:29:11.284Z,101522.47
2022-10-22T14:31:44.418Z,101523.25
2022-10-22T14:34:13.136Z,101517.88
2022-10-22T14:36:39.541Z,101517.81
2022-10-22T14:39:05.893Z,101521.94
2022-10-22T14:41:32.383Z,101523.88
2022-10-22T14:43:59.728Z,101527.63
2022-10-22T14:46:26.195Z,101532.38
2022-10-22T14:48:52.617Z,101531.16
2022-10-22T14:51:21.269Z,101537.44
2022-10-22T14:53:48.599Z,101523.50
2022-10-22T14:56:18.291Z,101528.13
2022-10-22T14:58:45.558Z,101531.34
2022-10-22T15:01:12.084Z,101537.25
2022-10-22T15:03:38.580Z,101539.72
2022-10-22T15:06:05.648Z,101538.75
2022-10-22T15:08:32.363Z,101544.53
2022-10-22T15:11:11.573Z,101553.19
2022-10-22T15:13:39.206Z,101554.47
2022-10-22T15:16:06.613Z,101551.91
2022-10-22T15:18:32.988Z,101552.47
2022-10-22T15:21:01.997Z,101529.81
2022-10-22T15:23:28.927Z,101560.28
2022-10-22T15:25:55.773Z,101561.06
2022-10-22T15:28:23.003Z,101562.41
2022-10-22T15:30:57.674Z,101555.22
2022-10-22T15:33:25.127Z,101541.34
2022-10-22T15:35:51.838Z,101557.59
2022-10-22T15:38:19.012Z,101563.78
2022-10-22T15:40:45.996Z,101573.84
2022-10-22T15:43:12.594Z,101575.63
2022-10-22T15:45:39.879Z,101578.78
2022-10-22T15:48:06.557Z,101590.09
2022-10-22T15:50:37.827Z,101589.59
2022-10-22T15:53:04.196Z,101589.66
2022-10-22T15:55:30.529Z,101593.53
2022-10-22T15:57:59.232Z,101608.44
2022-10-22T16:00:28.255Z,101608.53
2022-10-22T16:02:55.112Z,101607.19
2022-10-22T16:05:21.496Z,101619.56
2022-10-22T16:07:47.912Z,101622.94
2022-10-22T16:10:14.686Z,101626.88
2022-10-22T16:12:41.562Z,101632.41
2022-10-22T16:15:09.371Z,101630.50
2022-10-22T16:17:35.803Z,101628.44
2022-10-22T16:20:02.333Z,101623.59
2022-10-22T16:22:28.766Z,101626.84
2022-10-22T16:24:55.109Z,101632.78
2022-10-22T16:27:21.459Z,101634.53
2022-10-22T16:29:47.864Z,101625.56
2022-10-22T16:32:16.110Z,101633.06
2022-10-22T16:34:42.448Z,101628.88
2022-10-22T16:37:10.276Z,101628.88
2022-10-22T16:39:37.046Z,101623.81
2022-10-22T16:42:03.887Z,101636.84
2022-10-22T16:44:30.254Z,101640.06
2022-10-22T16:46:56.598Z,101650.38
2022-10-22T16:49:23.087Z,101653.44
2022-10-22T16:51:49.488Z,101648.53
2022-10-22T16:54:15.910Z,101652.56
2022-10-22T16:56:42.275Z,101657.13
2022-10-22T16:59:08.657Z,101655.78
2022-10-22T17:01:40.300Z,101652.91
2022-10-22T17:04:07.579Z,101651.22
2022-10-22T17:06:33.968Z,101655.94
2022-10-22T17:09:00.446Z,101665.38
2022-10-22T17:11:29.860Z,101637.94
2022-10-22T17:13:56.234Z,101677.19
2022-10-22T17:16:24.614Z,101680.22
2022-10-22T17:18:52.778Z,101680.88
2022-10-22T17:21:19.851Z,101681.72
2022-10-22T17:23:47.063Z,101683.75
2022-10-22T17:26:20.323Z,101686.94
2022-10-22T17:28:47.471Z,101697.56
2022-10-22T17:31:28.755Z,101701.44
2022-10-22T17:33:56.452Z,101695.69
2022-10-22T17:36:24.173Z,101701.06
2022-10-22T17:38:53.449Z,101699.56
2022-10-22T17:41:22.370Z,101708.81
2022-10-22T17:43:49.368Z,101708.13
2022-10-22T17:46:21.859Z,101706.03
2022-10-22T17:48:51.977Z,101724.97
2022-10-22T17:51:19.575Z,101720.44
2022-10-22T17:53:46.113Z,101724.63
2022-10-22T17:56:17.340Z,101722.94
2022-10-22T17:58:43.835Z,101727.47
2022-10-22T18:01:19.130Z,101738.28
2022-10-22T18:03:45.603Z,101740.47
2022-10-22T18:06:12.083Z,101735.56
2022-10-22T18:08:38.510Z,101750.88
2022-10-22T18:11:10.250Z,101742.50
2022-10-22T18:13:36.694Z,101744.34
2022-10-22T18:16:03.235Z,101754.63
2022-10-22T18:18:29.605Z,101750.41
2022-10-22T18:20:56.021Z,101750.22
2022-10-22T18:23:22.476Z,101749.88
2022-10-22T18:25:49.131Z,101749.56
2022-10-22T18:28:17.817Z,101749.22
2022-10-22T18:30:45.442Z,101750.53
2022-10-22T18:33:17.668Z,101743.44
2022-10-22T18:35:46.245Z,101759.97
2022-10-22T18:38:12.615Z,101757.78
2022-10-22T18:40:45.967Z,101759.28
2022-10-22T18:43:12.677Z,101749.28
2022-10-22T18:45:46.445Z,101758.06
2022-10-22T18:48:14.478Z,101759.31
2022-10-22T18:50:40.864Z,101754.47
2022-10-22T18:53:07.231Z,101757.16
2022-10-22T18:55:33.983Z,101760.03
2022-10-22T18:58:00.326Z,101755.28
2022-10-22T19:00:27.083Z,101733.88
2022-10-22T19:02:54.828Z,101753.75
2022-10-22T19:05:21.754Z,101747.84
2022-10-22T19:07:50.154Z,101763.34
2022-10-22T19:10:17.895Z,101723.00
2022-10-22T19:12:44.288Z,101761.31
2022-10-22T19:15:10.770Z,101761.31
2022-10-22T19:17:37.135Z,101750.34
2022-10-22T19:20:03.992Z,101756.25
2022-10-22T19:22:30.497Z,101749.69
2022-10-22T19:24:58.046Z,101756.91
2022-10-22T19:27:24.519Z,101758.03
2022-10-22T19:29:50.925Z,101748.28
2022-10-22T19:32:19.841Z,101756.81
2022-10-22T19:34:46.965Z,101753.28
2022-10-22T19:37:13.303Z,101754.31
2022-10-22T19:39:39.673Z,101763.75
2022-10-22T19:42:06.207Z,101763.09
2022-10-22T19:44:32.639Z,101770.13
2022-10-22T19:46:59.007Z,101768.97
2022-10-22T19:49:25.369Z,101766.94
2022-10-22T19:51:51.785Z,101771.84
2022-10-22T19:54:21.036Z,101768.44
2022-10-22T19:56:47.720Z,101774.03
2022-10-22T19:59:15.812Z,101775.84
2022-10-22T20:01:42.532Z,101752.50
2022-10-22T20:04:14.047Z,101749.25
2022-10-22T20:06:40.383Z,101762.06
2022-10-22T20:09:06.780Z,101771.63
2022-10-22T20:11:33.170Z,101779.03
2022-10-22T20:13:59.536Z,101786.75
2022-10-22T20:16:29.580Z,101788.06
2022-10-22T20:19:00.884Z,101791.47
2022-10-22T20:21:27.568Z,101790.13
2022-10-22T20:23:56.345Z,101766.66
2022-10-22T20:26:24.525Z,101799.94
2022-10-22T20:28:51.565Z,101803.94
2022-10-22T20:31:19.892Z,101803.88
2022-10-22T20:33:47.227Z,101796.00
2022-10-22T20:36:17.193Z,101799.31
2022-10-22T20:38:43.763Z,101804.53
2022-10-22T20:41:12.404Z,101804.63
2022-10-22T20:43:38.738Z,101796.69
2022-10-22T20:46:05.592Z,101802.03
2022-10-22T20:48:32.315Z,101801.78
2022-10-22T20:50:59.704Z,101801.94
2022-10-22T20:53:27.047Z,101804.91
2022-10-22T20:55:57.372Z,101802.69
2022-10-22T20:58:26.839Z,101798.16
2022-10-22T21:00:54.780Z,101806.38
2022-10-22T21:03:21.600Z,101805.16
2022-10-22T21:05:48.169Z,101799.25
2022-10-22T21:08:17.460Z,101807.47
2022-10-22T21:10:48.885Z,101797.03
2022-10-22T21:13:16.522Z,101782.41
2022-10-22T21:15:42.996Z,101802.31
2022-10-22T21:18:09.359Z,101805.28
2022-10-22T21:20:35.756Z,101798.38
2022-10-22T21:23:02.139Z,101792.16
2022-10-22T21:25:28.502Z,101788.94
2022-10-22T21:27:54.845Z,101792.63
2022-10-22T21:30:21.208Z,101797.91
2022-10-22T21:32:47.720Z,101804.22
2022-10-22T21:35:14.129Z,101816.59
2022-10-22T21:37:40.926Z,101810.00
2022-10-22T21:40:08.144Z,101807.31
2022-10-22T21:42:34.479Z,101802.31
2022-10-22T21:45:00.995Z,101817.19
2022-10-22T21:47:27.371Z,101785.06
2022-10-22T21:49:53.824Z,101789.22
2022-10-22T21:52:20.258Z,101790.91
2022-10-22T21:54:46.647Z,101810.50
2022-10-22T21:57:13.070Z,101820.09
2022-10-22T21:59:39.438Z,101814.50
2022-10-22T22:02:06.088Z,101818.75
2022-10-22T22:04:32.935Z,101794.09
2022-10-22T22:06:59.311Z,101810.69
2022-10-22T22:09:25.760Z,101823.44
2022-10-22T22:11:52.108Z,101826.56
2022-10-22T22:14:18.492Z,101813.38
2022-10-22T22:16:44.848Z,101816.97
2022-10-22T22:19:12.323Z,101825.34
2022-10-22T22:21:40.581Z,101814.88
2022-10-22T22:24:08.124Z,101819.69
2022-10-22T22:26:35.051Z,101819.56
2022-10-22T22:29:01.706Z,101813.22
2022-10-22T22:31:30.656Z,101829.31
2022-10-22T22:34:23.177Z,101824.34
2022-10-22T22:36:49.817Z,101827.16
2022-10-22T22:39:23.448Z,101834.19
2022-10-22T22:41:50.085Z,101809.69
2022-10-22T22:44:16.754Z,101832.78
2022-10-22T22:46:43.650Z,101833.78
2022-10-22T22:49:10.099Z,101830.38
2022-10-22T22:51:36.489Z,101816.75
2022-10-22T22:54:02.935Z,101831.81
2022-10-22T22:56:31.275Z,101822.06
2022-10-22T22:58:58.496Z,101829.38
2022-10-22T23:01:31.051Z,101830.59
2022-10-22T23:04:16.394Z,101822.44
2022-10-22T23:06:42.952Z,101828.97
2022-10-22T23:09:11.465Z,101826.13
2022-10-22T23:11:39.100Z,101832.09
2022-10-22T23:14:07.475Z,101833.53
2022-10-22T23:16:36.701Z,101829.72
2022-10-22T23:19:04.463Z,101831.31
2022-10-22T23:21:36.616Z,101825.78
2022-10-22T23:24:07.228Z,101835.53
2022-10-22T23:26:36.143Z,101834.38
2022-10-22T23:29:05.107Z,101809.03
2022-10-22T23:31:31.741Z,101833.06
2022-10-22T23:33:58.830Z,101830.38
2022-10-22T23:36:25.542Z,101825.88
2022-10-22T23:38:52.112Z,101820.22
2022-10-22T23:41:18.523Z,101820.06
2022-10-22T23:43:45.001Z,101817.91
2022-10-22T23:46:12.922Z,101826.69
2022-10-22T23:48:39.872Z,101824.72
2022-10-22T23:51:12.519Z,101805.53
2022-10-22T23:53:39.568Z,101819.28
2022-10-22T23:56:13.143Z,101811.69
2022-10-22T23:58:40.112Z,101811.16
